sensor_id;sensor_type;location;lat;lon;timestamp;temperature;humidity
51327;DHT22;37412;52.836;6.362;2023-05-10T00:01:25;13.10;99.90
51327;DHT22;37412;52.836;6.362;2023-05-10T00:04:11;13.00;99.90
51327;DHT22;37412;52.836;6.362;2023-05-10T00:06:57;13.00;99.90
51327;DHT22;37412;52.836;6.362;2023-05-10T00:09:43;13.00;99.90
51327;DHT22;37412;52.836;6.362;2023-05-10T00:12:32;13.00;99.90
51327;DHT22;37412;52.836;6.362;2023-05-10T00:15:18;12.90;99.90
51327;DHT22;37412;52.836;6.362;2023-05-10T00:18:04;12.90;99.90
51327;DHT22;37412;52.836;6.362;2023-05-10T00:20:50;12.90;99.90
51327;DHT22;37412;52.836;6.362;2023-05-10T00:23:36;12.90;99.90
51327;DHT22;37412;52.836;6.362;2023-05-10T00:26:23;12.80;99.90
51327;DHT22;37412;52.836;6.362;2023-05-10T00:29:08;12.80;99.90
51327;DHT22;37412;52.836;6.362;2023-05-10T00:31:57;12.80;99.90
51327;DHT22;37412;52.836;6.362;2023-05-10T00:34:43;12.90;99.90
51327;DHT22;37412;52.836;6.362;2023-05-10T00:37:29;12.90;99.90
51327;DHT22;37412;52.836;6.362;2023-05-10T00:40:15;12.90;99.90
51327;DHT22;37412;52.836;6.362;2023-05-10T00:43:01;12.90;99.90
51327;DHT22;37412;52.836;6.362;2023-05-10T00:45:47;12.80;99.90
51327;DHT22;37412;52.836;6.362;2023-05-10T00:48:32;12.80;99.90
51327;DHT22;37412;52.836;6.362;2023-05-10T00:51:18;12.80;99.90
51327;DHT22;37412;52.836;6.362;2023-05-10T00:54:04;12.90;99.90
51327;DHT22;37412;52.836;6.362;2023-05-10T00:56:51;12.80;99.90
51327;DHT22;37412;52.836;6.362;2023-05-10T00:59:37;12.80;99.90
51327;DHT22;37412;52.836;6.362;2023-05-10T01:02:23;12.80;99.90
51327;DHT22;37412;52.836;6.362;2023-05-10T01:05:09;12.80;99.90
51327;DHT22;37412;52.836;6.362;2023-05-10T01:07:55;12.80;99.90
51327;DHT22;37412;52.836;6.362;2023-05-10T01:10:44;12.80;99.90
51327;DHT22;37412;52.836;6.362;2023-05-10T01:13:32;12.90;99.90
51327;DHT22;37412;52.836;6.362;2023-05-10T01:16:20;12.80;99.90
51327;DHT22;37412;52.836;6.362;2023-05-10T01:19:06;12.80;99.90
51327;DHT22;37412;52.836;6.362;2023-05-10T01:30:31;12.80;99.90
51327;DHT22;37412;52.836;6.362;2023-05-10T01:33:30;12.80;99.90
51327;DHT22;37412;52.836;6.362;2023-05-10T01:39:13;12.80;99.90
51327;DHT22;37412;52.836;6.362;2023-05-10T01:42:11;12.80;99.90
51327;DHT22;37412;52.836;6.362;2023-05-10T01:45:02;12.80;99.90
51327;DHT22;37412;52.836;6.362;2023-05-10T01:48:13;12.80;99.90
51327;DHT22;37412;52.836;6.362;2023-05-10T01:50:58;12.70;99.90
51327;DHT22;37412;52.836;6.362;2023-05-10T01:53:44;12.70;99.90
51327;DHT22;37412;52.836;6.362;2023-05-10T01:56:32;12.70;99.90
51327;DHT22;37412;52.836;6.362;2023-05-10T01:59:19;12.70;99.90
51327;DHT22;37412;52.836;6.362;2023-05-10T02:02:11;12.70;99.90
51327;DHT22;37412;52.836;6.362;2023-05-10T02:04:57;12.70;99.90
51327;DHT22;37412;52.836;6.362;2023-05-10T02:07:44;12.70;99.90
51327;DHT22;37412;52.836;6.362;2023-05-10T02:10:31;12.70;99.90
51327;DHT22;37412;52.836;6.362;2023-05-10T02:13:19;12.70;99.90
51327;DHT22;37412;52.836;6.362;2023-05-10T02:16:08;12.70;99.90
51327;DHT22;37412;52.836;6.362;2023-05-10T02:18:54;12.70;99.90
51327;DHT22;37412;52.836;6.362;2023-05-10T02:21:41;12.60;99.90
51327;DHT22;37412;52.836;6.362;2023-05-10T02:24:27;12.70;99.90
51327;DHT22;37412;52.836;6.362;2023-05-10T02:27:13;12.70;99.90
51327;DHT22;37412;52.836;6.362;2023-05-10T02:30:00;12.60;99.90
51327;DHT22;37412;52.836;6.362;2023-05-10T02:32:46;12.60;99.90
51327;DHT22;37412;52.836;6.362;2023-05-10T02:35:32;12.60;99.90
51327;DHT22;37412;52.836;6.362;2023-05-10T02:38:19;12.60;99.90
51327;DHT22;37412;52.836;6.362;2023-05-10T02:41:05;12.60;99.90
51327;DHT22;37412;52.836;6.362;2023-05-10T02:43:54;12.60;99.90
51327;DHT22;37412;52.836;6.362;2023-05-10T02:46:44;12.60;99.90
51327;DHT22;37412;52.836;6.362;2023-05-10T02:49:30;12.60;99.90
51327;DHT22;37412;52.836;6.362;2023-05-10T02:52:18;12.60;99.90
51327;DHT22;37412;52.836;6.362;2023-05-10T02:55:05;12.50;99.90
51327;DHT22;37412;52.836;6.362;2023-05-10T02:57:56;12.50;99.90
51327;DHT22;37412;52.836;6.362;2023-05-10T03:00:42;12.50;99.90
51327;DHT22;37412;52.836;6.362;2023-05-10T03:03:29;12.50;99.90
51327;DHT22;37412;52.836;6.362;2023-05-10T03:06:15;12.50;99.90
51327;DHT22;37412;52.836;6.362;2023-05-10T03:09:02;12.50;99.90
51327;DHT22;37412;52.836;6.362;2023-05-10T03:11:56;12.50;99.90
51327;DHT22;37412;52.836;6.362;2023-05-10T03:14:57;12.50;99.90
51327;DHT22;37412;52.836;6.362;2023-05-10T03:17:47;12.50;99.90
51327;DHT22;37412;52.836;6.362;2023-05-10T03:20:46;12.40;99.90
51327;DHT22;37412;52.836;6.362;2023-05-10T03:23:40;12.40;99.90
51327;DHT22;37412;52.836;6.362;2023-05-10T03:26:27;12.40;99.90
51327;DHT22;37412;52.836;6.362;2023-05-10T03:29:13;12.40;99.90
51327;DHT22;37412;52.836;6.362;2023-05-10T03:32:00;12.40;99.90
51327;DHT22;37412;52.836;6.362;2023-05-10T03:34:46;12.40;99.90
51327;DHT22;37412;52.836;6.362;2023-05-10T03:37:32;12.40;99.90
51327;DHT22;37412;52.836;6.362;2023-05-10T03:40:17;12.40;99.90
51327;DHT22;37412;52.836;6.362;2023-05-10T03:43:03;12.40;99.90
51327;DHT22;37412;52.836;6.362;2023-05-10T03:45:49;12.40;99.90
51327;DHT22;37412;52.836;6.362;2023-05-10T03:48:35;12.40;99.90
51327;DHT22;37412;52.836;6.362;2023-05-10T03:51:21;12.30;99.90
51327;DHT22;37412;52.836;6.362;2023-05-10T03:54:07;12.30;99.90
51327;DHT22;37412;52.836;6.362;2023-05-10T03:56:53;12.40;99.90
51327;DHT22;37412;52.836;6.362;2023-05-10T03:59:39;12.40;99.90
51327;DHT22;37412;52.836;6.362;2023-05-10T04:02:25;12.40;99.90
51327;DHT22;37412;52.836;6.362;2023-05-10T04:05:11;12.40;99.90
51327;DHT22;37412;52.836;6.362;2023-05-10T04:07:57;12.40;99.90
51327;DHT22;37412;52.836;6.362;2023-05-10T04:10:42;12.40;99.90
51327;DHT22;37412;52.836;6.362;2023-05-10T04:13:29;12.40;99.90
51327;DHT22;37412;52.836;6.362;2023-05-10T04:16:14;12.40;99.90
51327;DHT22;37412;52.836;6.362;2023-05-10T04:19:00;12.40;99.90
51327;DHT22;37412;52.836;6.362;2023-05-10T04:21:49;12.40;99.90
51327;DHT22;37412;52.836;6.362;2023-05-10T04:24:36;12.40;99.90
51327;DHT22;37412;52.836;6.362;2023-05-10T04:27:22;12.40;99.90
51327;DHT22;37412;52.836;6.362;2023-05-10T04:30:08;12.60;99.90
51327;DHT22;37412;52.836;6.362;2023-05-10T04:32:57;12.40;99.90
51327;DHT22;37412;52.836;6.362;2023-05-10T04:35:43;12.40;99.90
51327;DHT22;37412;52.836;6.362;2023-05-10T04:38:30;12.40;99.90
51327;DHT22;37412;52.836;6.362;2023-05-10T04:41:16;12.40;99.90
51327;DHT22;37412;52.836;6.362;2023-05-10T04:44:02;12.40;99.90
51327;DHT22;37412;52.836;6.362;2023-05-10T04:46:48;12.40;99.90
51327;DHT22;37412;52.836;6.362;2023-05-10T04:49:35;12.40;99.90
51327;DHT22;37412;52.836;6.362;2023-05-10T04:52:21;12.40;99.90
51327;DHT22;37412;52.836;6.362;2023-05-10T04:55:07;12.40;99.90
51327;DHT22;37412;52.836;6.362;2023-05-10T04:57:55;12.40;99.90
51327;DHT22;37412;52.836;6.362;2023-05-10T05:00:42;12.40;99.90
51327;DHT22;37412;52.836;6.362;2023-05-10T05:03:28;12.40;99.90
51327;DHT22;37412;52.836;6.362;2023-05-10T05:06:14;12.40;99.90
51327;DHT22;37412;52.836;6.362;2023-05-10T05:09:00;12.40;99.90
51327;DHT22;37412;52.836;6.362;2023-05-10T05:11:46;12.40;99.90
51327;DHT22;37412;52.836;6.362;2023-05-10T05:14:31;12.40;99.90
51327;DHT22;37412;52.836;6.362;2023-05-10T05:17:17;12.50;99.90
51327;DHT22;37412;52.836;6.362;2023-05-10T05:20:03;12.50;99.90
51327;DHT22;37412;52.836;6.362;2023-05-10T05:22:49;12.50;99.90
51327;DHT22;37412;52.836;6.362;2023-05-10T05:25:35;12.50;99.90
51327;DHT22;37412;52.836;6.362;2023-05-10T05:28:21;12.50;99.90
51327;DHT22;37412;52.836;6.362;2023-05-10T05:31:07;12.50;99.90
51327;DHT22;37412;52.836;6.362;2023-05-10T05:33:53;12.60;99.90
51327;DHT22;37412;52.836;6.362;2023-05-10T05:36:39;12.60;99.90
51327;DHT22;37412;52.836;6.362;2023-05-10T05:39:28;12.50;99.90
51327;DHT22;37412;52.836;6.362;2023-05-10T05:42:14;12.60;99.90
51327;DHT22;37412;52.836;6.362;2023-05-10T05:45:02;12.50;99.90
51327;DHT22;37412;52.836;6.362;2023-05-10T05:47:47;12.60;99.90
51327;DHT22;37412;52.836;6.362;2023-05-10T05:50:35;12.60;99.90
51327;DHT22;37412;52.836;6.362;2023-05-10T05:53:21;12.60;99.90
51327;DHT22;37412;52.836;6.362;2023-05-10T05:56:09;12.60;99.90
51327;DHT22;37412;52.836;6.362;2023-05-10T05:58:55;12.50;99.90
51327;DHT22;37412;52.836;6.362;2023-05-10T06:01:41;12.50;99.90
51327;DHT22;37412;52.836;6.362;2023-05-10T06:04:27;12.60;99.90
51327;DHT22;37412;52.836;6.362;2023-05-10T06:07:16;12.60;99.90
51327;DHT22;37412;52.836;6.362;2023-05-10T06:10:02;12.60;99.90
51327;DHT22;37412;52.836;6.362;2023-05-10T06:12:48;12.60;99.90
51327;DHT22;37412;52.836;6.362;2023-05-10T06:15:34;12.70;99.90
51327;DHT22;37412;52.836;6.362;2023-05-10T06:18:20;12.60;99.90
51327;DHT22;37412;52.836;6.362;2023-05-10T06:21:06;12.70;99.90
51327;DHT22;37412;52.836;6.362;2023-05-10T06:23:55;12.70;99.90
51327;DHT22;37412;52.836;6.362;2023-05-10T06:26:44;12.70;99.90
51327;DHT22;37412;52.836;6.362;2023-05-10T06:29:30;12.80;99.90
51327;DHT22;37412;52.836;6.362;2023-05-10T06:32:16;12.80;99.90
51327;DHT22;37412;52.836;6.362;2023-05-10T06:35:04;12.80;99.90
51327;DHT22;37412;52.836;6.362;2023-05-10T06:37:50;12.80;99.90
51327;DHT22;37412;52.836;6.362;2023-05-10T06:40:37;12.80;99.90
51327;DHT22;37412;52.836;6.362;2023-05-10T06:43:26;12.80;99.90
51327;DHT22;37412;52.836;6.362;2023-05-10T06:46:14;12.90;99.90
51327;DHT22;37412;52.836;6.362;2023-05-10T06:49:00;12.90;99.90
51327;DHT22;37412;52.836;6.362;2023-05-10T06:51:46;12.90;99.90
51327;DHT22;37412;52.836;6.362;2023-05-10T06:54:31;13.00;99.90
51327;DHT22;37412;52.836;6.362;2023-05-10T06:57:18;13.00;99.90
51327;DHT22;37412;52.836;6.362;2023-05-10T07:00:04;13.10;99.90
51327;DHT22;37412;52.836;6.362;2023-05-10T07:02:50;13.20;99.90
51327;DHT22;37412;52.836;6.362;2023-05-10T07:05:36;13.20;99.90
51327;DHT22;37412;52.836;6.362;2023-05-10T07:08:22;13.20;99.90
51327;DHT22;37412;52.836;6.362;2023-05-10T07:11:08;13.20;99.90
51327;DHT22;37412;52.836;6.362;2023-05-10T07:13:54;13.20;99.90
51327;DHT22;37412;52.836;6.362;2023-05-10T07:16:39;13.20;99.90
51327;DHT22;37412;52.836;6.362;2023-05-10T07:19:25;13.30;99.90
51327;DHT22;37412;52.836;6.362;2023-05-10T07:22:11;13.30;99.90
51327;DHT22;37412;52.836;6.362;2023-05-10T07:24:57;13.30;99.90
51327;DHT22;37412;52.836;6.362;2023-05-10T07:27:47;13.30;99.90
51327;DHT22;37412;52.836;6.362;2023-05-10T07:30:34;13.30;99.90
51327;DHT22;37412;52.836;6.362;2023-05-10T07:33:19;13.30;99.90
51327;DHT22;37412;52.836;6.362;2023-05-10T07:36:07;13.30;99.90
51327;DHT22;37412;52.836;6.362;2023-05-10T07:38:55;13.30;99.90
51327;DHT22;37412;52.836;6.362;2023-05-10T07:41:43;13.30;99.90
51327;DHT22;37412;52.836;6.362;2023-05-10T07:44:32;13.30;99.90
51327;DHT22;37412;52.836;6.362;2023-05-10T07:47:17;13.30;99.90
51327;DHT22;37412;52.836;6.362;2023-05-10T07:50:04;13.30;99.90
51327;DHT22;37412;52.836;6.362;2023-05-10T07:52:50;13.40;99.90
51327;DHT22;37412;52.836;6.362;2023-05-10T07:55:36;13.50;99.90
51327;DHT22;37412;52.836;6.362;2023-05-10T07:58:22;13.60;99.90
51327;DHT22;37412;52.836;6.362;2023-05-10T08:01:08;13.70;99.90
51327;DHT22;37412;52.836;6.362;2023-05-10T08:03:53;13.70;99.90
51327;DHT22;37412;52.836;6.362;2023-05-10T08:06:39;13.70;99.90
51327;DHT22;37412;52.836;6.362;2023-05-10T08:09:25;13.70;99.90
51327;DHT22;37412;52.836;6.362;2023-05-10T08:12:11;13.70;99.90
51327;DHT22;37412;52.836;6.362;2023-05-10T08:14:57;13.70;99.90
51327;DHT22;37412;52.836;6.362;2023-05-10T08:17:43;13.70;99.90
51327;DHT22;37412;52.836;6.362;2023-05-10T08:20:29;13.70;99.90
51327;DHT22;37412;52.836;6.362;2023-05-10T08:23:15;13.70;99.90
51327;DHT22;37412;52.836;6.362;2023-05-10T08:26:01;13.80;99.90
51327;DHT22;37412;52.836;6.362;2023-05-10T08:28:46;13.90;99.90
51327;DHT22;37412;52.836;6.362;2023-05-10T08:31:32;13.90;99.90
51327;DHT22;37412;52.836;6.362;2023-05-10T08:34:18;14.00;99.90
51327;DHT22;37412;52.836;6.362;2023-05-10T08:37:04;14.00;99.90
51327;DHT22;37412;52.836;6.362;2023-05-10T08:39:50;14.00;99.90
51327;DHT22;37412;52.836;6.362;2023-05-10T08:42:36;14.00;99.90
51327;DHT22;37412;52.836;6.362;2023-05-10T08:45:23;14.00;99.90
51327;DHT22;37412;52.836;6.362;2023-05-10T08:48:10;13.90;99.90
51327;DHT22;37412;52.836;6.362;2023-05-10T08:50:56;13.90;99.90
51327;DHT22;37412;52.836;6.362;2023-05-10T08:53:44;13.80;99.90
51327;DHT22;37412;52.836;6.362;2023-05-10T08:56:29;13.80;99.90
51327;DHT22;37412;52.836;6.362;2023-05-10T08:59:15;13.80;99.90
51327;DHT22;37412;52.836;6.362;2023-05-10T09:02:01;13.90;99.90
51327;DHT22;37412;52.836;6.362;2023-05-10T09:04:49;13.90;99.90
51327;DHT22;37412;52.836;6.362;2023-05-10T09:07:35;14.00;99.90
51327;DHT22;37412;52.836;6.362;2023-05-10T09:10:21;14.00;99.90
51327;DHT22;37412;52.836;6.362;2023-05-10T09:13:07;13.90;99.90
51327;DHT22;37412;52.836;6.362;2023-05-10T09:15:53;14.00;99.90
51327;DHT22;37412;52.836;6.362;2023-05-10T09:18:39;14.10;99.90
51327;DHT22;37412;52.836;6.362;2023-05-10T09:21:25;14.00;99.90
51327;DHT22;37412;52.836;6.362;2023-05-10T09:24:11;14.10;99.90
51327;DHT22;37412;52.836;6.362;2023-05-10T09:26:57;14.10;99.90
51327;DHT22;37412;52.836;6.362;2023-05-10T09:29:46;14.20;99.90
51327;DHT22;37412;52.836;6.362;2023-05-10T09:32:38;14.40;99.90
51327;DHT22;37412;52.836;6.362;2023-05-10T09:35:26;14.20;99.90
51327;DHT22;37412;52.836;6.362;2023-05-10T09:38:15;14.40;99.90
51327;DHT22;37412;52.836;6.362;2023-05-10T09:41:01;14.40;99.90
51327;DHT22;37412;52.836;6.362;2023-05-10T09:43:48;14.40;99.90
51327;DHT22;37412;52.836;6.362;2023-05-10T09:46:37;14.50;99.90
51327;DHT22;37412;52.836;6.362;2023-05-10T09:49:23;14.50;99.90
51327;DHT22;37412;52.836;6.362;2023-05-10T09:52:09;14.60;99.90
51327;DHT22;37412;52.836;6.362;2023-05-10T09:54:55;14.50;99.90
51327;DHT22;37412;52.836;6.362;2023-05-10T09:57:41;14.50;99.90
51327;DHT22;37412;52.836;6.362;2023-05-10T10:00:27;14.50;99.90
51327;DHT22;37412;52.836;6.362;2023-05-10T10:03:14;14.60;99.90
51327;DHT22;37412;52.836;6.362;2023-05-10T10:06:00;14.60;99.90
51327;DHT22;37412;52.836;6.362;2023-05-10T10:08:46;14.60;99.90
51327;DHT22;37412;52.836;6.362;2023-05-10T10:11:33;14.70;99.90
51327;DHT22;37412;52.836;6.362;2023-05-10T10:14:19;14.70;99.90
51327;DHT22;37412;52.836;6.362;2023-05-10T10:17:05;14.60;99.90
51327;DHT22;37412;52.836;6.362;2023-05-10T10:19:52;14.70;99.90
51327;DHT22;37412;52.836;6.362;2023-05-10T10:22:38;14.70;99.90
51327;DHT22;37412;52.836;6.362;2023-05-10T10:25:23;14.80;99.90
51327;DHT22;37412;52.836;6.362;2023-05-10T10:36:44;14.80;99.90
51327;DHT22;37412;52.836;6.362;2023-05-10T10:39:30;14.80;99.90
51327;DHT22;37412;52.836;6.362;2023-05-10T10:42:43;14.80;99.90
51327;DHT22;37412;52.836;6.362;2023-05-10T10:45:23;14.80;99.90
51327;DHT22;37412;52.836;6.362;2023-05-10T10:48:21;14.90;99.90
51327;DHT22;37412;52.836;6.362;2023-05-10T10:51:07;15.00;99.90
51327;DHT22;37412;52.836;6.362;2023-05-10T10:53:53;15.00;99.90
51327;DHT22;37412;52.836;6.362;2023-05-10T10:56:39;15.10;99.90
51327;DHT22;37412;52.836;6.362;2023-05-10T10:59:28;15.10;99.90
51327;DHT22;37412;52.836;6.362;2023-05-10T11:05:42;15.10;99.90
51327;DHT22;37412;52.836;6.362;2023-05-10T11:08:29;15.10;99.90
51327;DHT22;37412;52.836;6.362;2023-05-10T11:11:15;15.20;99.90
51327;DHT22;37412;52.836;6.362;2023-05-10T11:14:04;15.20;99.90
51327;DHT22;37412;52.836;6.362;2023-05-10T11:16:51;15.30;99.90
51327;DHT22;37412;52.836;6.362;2023-05-10T11:19:37;15.30;99.90
51327;DHT22;37412;52.836;6.362;2023-05-10T11:22:24;15.40;99.90
51327;DHT22;37412;52.836;6.362;2023-05-10T11:25:11;15.30;99.90
51327;DHT22;37412;52.836;6.362;2023-05-10T11:27:57;15.30;99.90
51327;DHT22;37412;52.836;6.362;2023-05-10T11:30:43;15.20;99.90
51327;DHT22;37412;52.836;6.362;2023-05-10T11:33:29;15.30;99.90
51327;DHT22;37412;52.836;6.362;2023-05-10T11:36:16;15.30;99.90
51327;DHT22;37412;52.836;6.362;2023-05-10T11:39:02;15.30;99.90
51327;DHT22;37412;52.836;6.362;2023-05-10T11:41:48;15.40;99.90
51327;DHT22;37412;52.836;6.362;2023-05-10T11:44:34;15.20;99.90
51327;DHT22;37412;52.836;6.362;2023-05-10T11:47:20;15.20;99.90
51327;DHT22;37412;52.836;6.362;2023-05-10T11:50:07;15.20;99.90
51327;DHT22;37412;52.836;6.362;2023-05-10T11:52:53;15.20;99.90
51327;DHT22;37412;52.836;6.362;2023-05-10T11:55:39;15.30;99.90
51327;DHT22;37412;52.836;6.362;2023-05-10T11:58:25;15.20;99.90
51327;DHT22;37412;52.836;6.362;2023-05-10T12:01:12;15.20;99.90
51327;DHT22;37412;52.836;6.362;2023-05-10T12:03:58;15.20;99.90
51327;DHT22;37412;52.836;6.362;2023-05-10T12:06:45;15.20;99.90
51327;DHT22;37412;52.836;6.362;2023-05-10T12:09:32;15.10;99.90
51327;DHT22;37412;52.836;6.362;2023-05-10T12:12:19;15.20;99.90
51327;DHT22;37412;52.836;6.362;2023-05-10T12:15:05;15.20;99.90
51327;DHT22;37412;52.836;6.362;2023-05-10T12:17:52;15.10;99.90
51327;DHT22;37412;52.836;6.362;2023-05-10T12:20:38;15.10;99.90
51327;DHT22;37412;52.836;6.362;2023-05-10T12:23:24;15.00;99.90
51327;DHT22;37412;52.836;6.362;2023-05-10T12:26:11;15.00;99.90
51327;DHT22;37412;52.836;6.362;2023-05-10T12:29:13;14.90;99.90
51327;DHT22;37412;52.836;6.362;2023-05-10T12:31:59;14.90;99.90
51327;DHT22;37412;52.836;6.362;2023-05-10T12:34:46;14.90;99.90
51327;DHT22;37412;52.836;6.362;2023-05-10T12:37:32;14.90;99.90
51327;DHT22;37412;52.836;6.362;2023-05-10T12:40:21;14.90;99.90
51327;DHT22;37412;52.836;6.362;2023-05-10T12:43:07;14.90;99.90
51327;DHT22;37412;52.836;6.362;2023-05-10T12:45:53;15.00;99.90
51327;DHT22;37412;52.836;6.362;2023-05-10T12:48:39;15.00;99.90
51327;DHT22;37412;52.836;6.362;2023-05-10T12:51:25;15.00;99.90
51327;DHT22;37412;52.836;6.362;2023-05-10T12:54:11;14.90;99.90
51327;DHT22;37412;52.836;6.362;2023-05-10T12:56:57;14.90;99.90
51327;DHT22;37412;52.836;6.362;2023-05-10T12:59:43;14.90;99.90
51327;DHT22;37412;52.836;6.362;2023-05-10T13:02:29;15.00;99.90
51327;DHT22;37412;52.836;6.362;2023-05-10T13:05:14;15.00;99.90
51327;DHT22;37412;52.836;6.362;2023-05-10T13:08:00;15.00;99.90
51327;DHT22;37412;52.836;6.362;2023-05-10T13:10:46;15.00;99.90
51327;DHT22;37412;52.836;6.362;2023-05-10T13:13:32;15.10;99.90
51327;DHT22;37412;52.836;6.362;2023-05-10T13:16:18;15.10;99.90
51327;DHT22;37412;52.836;6.362;2023-05-10T13:19:04;15.20;99.90
51327;DHT22;37412;52.836;6.362;2023-05-10T13:21:50;15.20;99.90
51327;DHT22;37412;52.836;6.362;2023-05-10T13:24:36;15.30;99.90
51327;DHT22;37412;52.836;6.362;2023-05-10T13:27:22;15.30;99.90
51327;DHT22;37412;52.836;6.362;2023-05-10T13:30:08;15.30;99.90
51327;DHT22;37412;52.836;6.362;2023-05-10T13:32:54;15.40;99.90
51327;DHT22;37412;52.836;6.362;2023-05-10T13:35:40;15.40;99.90
51327;DHT22;37412;52.836;6.362;2023-05-10T13:38:26;15.50;99.90
51327;DHT22;37412;52.836;6.362;2023-05-10T13:41:11;15.50;99.90
51327;DHT22;37412;52.836;6.362;2023-05-10T13:43:57;15.60;99.90
51327;DHT22;37412;52.836;6.362;2023-05-10T13:46:43;15.70;99.90
51327;DHT22;37412;52.836;6.362;2023-05-10T13:49:30;15.70;99.90
51327;DHT22;37412;52.836;6.362;2023-05-10T13:52:15;15.70;99.90
51327;DHT22;37412;52.836;6.362;2023-05-10T13:55:01;15.80;99.90
51327;DHT22;37412;52.836;6.362;2023-05-10T13:57:48;15.80;99.90
51327;DHT22;37412;52.836;6.362;2023-05-10T14:00:34;15.80;99.90
51327;DHT22;37412;52.836;6.362;2023-05-10T14:03:20;15.90;99.90
51327;DHT22;37412;52.836;6.362;2023-05-10T14:06:05;15.90;99.90
51327;DHT22;37412;52.836;6.362;2023-05-10T14:08:53;15.90;99.90
51327;DHT22;37412;52.836;6.362;2023-05-10T14:11:39;15.90;99.90
51327;DHT22;37412;52.836;6.362;2023-05-10T14:14:28;15.90;99.90
51327;DHT22;37412;52.836;6.362;2023-05-10T14:17:15;16.00;99.90
51327;DHT22;37412;52.836;6.362;2023-05-10T14:20:04;16.00;99.90
51327;DHT22;37412;52.836;6.362;2023-05-10T14:22:53;16.00;99.90
51327;DHT22;37412;52.836;6.362;2023-05-10T14:25:42;16.10;99.90
51327;DHT22;37412;52.836;6.362;2023-05-10T14:28:28;16.10;99.90
51327;DHT22;37412;52.836;6.362;2023-05-10T14:31:14;16.00;99.90
51327;DHT22;37412;52.836;6.362;2023-05-10T14:34:02;16.10;99.90
51327;DHT22;37412;52.836;6.362;2023-05-10T14:36:48;16.10;99.90
51327;DHT22;37412;52.836;6.362;2023-05-10T14:39:35;16.20;99.90
51327;DHT22;37412;52.836;6.362;2023-05-10T14:42:21;16.20;99.90
51327;DHT22;37412;52.836;6.362;2023-05-10T14:45:07;16.20;99.90
51327;DHT22;37412;52.836;6.362;2023-05-10T14:47:53;16.20;99.90
51327;DHT22;37412;52.836;6.362;2023-05-10T14:50:38;16.30;99.90
51327;DHT22;37412;52.836;6.362;2023-05-10T14:53:25;16.30;99.90
51327;DHT22;37412;52.836;6.362;2023-05-10T14:56:11;16.30;99.90
51327;DHT22;37412;52.836;6.362;2023-05-10T14:58:58;16.40;99.90
51327;DHT22;37412;52.836;6.362;2023-05-10T15:01:44;16.40;99.90
51327;DHT22;37412;52.836;6.362;2023-05-10T15:04:30;16.40;99.90
51327;DHT22;37412;52.836;6.362;2023-05-10T15:07:18;16.30;99.90
51327;DHT22;37412;52.836;6.362;2023-05-10T15:10:05;16.30;99.90
51327;DHT22;37412;52.836;6.362;2023-05-10T15:12:54;16.20;99.90
51327;DHT22;37412;52.836;6.362;2023-05-10T15:15:40;16.10;99.90
51327;DHT22;37412;52.836;6.362;2023-05-10T15:18:26;16.00;99.90
51327;DHT22;37412;52.836;6.362;2023-05-10T15:21:12;16.00;99.90
51327;DHT22;37412;52.836;6.362;2023-05-10T15:23:58;15.90;99.90
51327;DHT22;37412;52.836;6.362;2023-05-10T15:26:44;15.80;99.90
51327;DHT22;37412;52.836;6.362;2023-05-10T15:29:30;15.80;99.90
51327;DHT22;37412;52.836;6.362;2023-05-10T15:32:17;15.80;99.90
51327;DHT22;37412;52.836;6.362;2023-05-10T15:35:03;15.60;99.90
51327;DHT22;37412;52.836;6.362;2023-05-10T15:37:49;15.70;99.90
51327;DHT22;37412;52.836;6.362;2023-05-10T15:40:35;15.70;99.90
51327;DHT22;37412;52.836;6.362;2023-05-10T15:43:21;15.70;99.90
51327;DHT22;37412;52.836;6.362;2023-05-10T15:46:06;15.80;99.90
51327;DHT22;37412;52.836;6.362;2023-05-10T15:48:53;15.70;99.90
51327;DHT22;37412;52.836;6.362;2023-05-10T15:51:39;15.70;99.90
51327;DHT22;37412;52.836;6.362;2023-05-10T15:54:25;15.70;99.90
51327;DHT22;37412;52.836;6.362;2023-05-10T15:57:11;15.70;99.90
51327;DHT22;37412;52.836;6.362;2023-05-10T15:59:57;15.70;99.90
51327;DHT22;37412;52.836;6.362;2023-05-10T16:02:43;15.80;99.90
51327;DHT22;37412;52.836;6.362;2023-05-10T16:05:28;15.80;99.90
51327;DHT22;37412;52.836;6.362;2023-05-10T16:08:18;15.70;99.90
51327;DHT22;37412;52.836;6.362;2023-05-10T16:11:03;15.70;99.90
51327;DHT22;37412;52.836;6.362;2023-05-10T16:13:49;15.70;99.90
51327;DHT22;37412;52.836;6.362;2023-05-10T16:16:35;15.80;99.90
51327;DHT22;37412;52.836;6.362;2023-05-10T16:19:21;15.70;99.90
51327;DHT22;37412;52.836;6.362;2023-05-10T16:22:07;15.70;99.90
51327;DHT22;37412;52.836;6.362;2023-05-10T16:24:53;15.80;99.90
51327;DHT22;37412;52.836;6.362;2023-05-10T16:27:39;15.80;99.90
51327;DHT22;37412;52.836;6.362;2023-05-10T16:30:25;15.80;99.90
51327;DHT22;37412;52.836;6.362;2023-05-10T16:33:12;15.70;99.90
51327;DHT22;37412;52.836;6.362;2023-05-10T16:35:58;15.70;99.90
51327;DHT22;37412;52.836;6.362;2023-05-10T16:38:43;15.70;99.90
51327;DHT22;37412;52.836;6.362;2023-05-10T16:41:32;15.70;99.90
51327;DHT22;37412;52.836;6.362;2023-05-10T16:44:19;15.60;99.90
51327;DHT22;37412;52.836;6.362;2023-05-10T16:47:04;15.50;99.90
51327;DHT22;37412;52.836;6.362;2023-05-10T16:49:50;15.50;99.90
51327;DHT22;37412;52.836;6.362;2023-05-10T16:52:36;15.40;99.90
51327;DHT22;37412;52.836;6.362;2023-05-10T16:55:22;15.50;99.90
51327;DHT22;37412;52.836;6.362;2023-05-10T16:58:08;15.40;99.90
51327;DHT22;37412;52.836;6.362;2023-05-10T17:00:57;15.40;99.90
51327;DHT22;37412;52.836;6.362;2023-05-10T17:03:43;15.40;99.90
51327;DHT22;37412;52.836;6.362;2023-05-10T17:06:29;15.40;99.90
51327;DHT22;37412;52.836;6.362;2023-05-10T17:09:14;15.30;99.90
51327;DHT22;37412;52.836;6.362;2023-05-10T17:12:00;15.30;99.90
51327;DHT22;37412;52.836;6.362;2023-05-10T17:14:48;15.30;99.90
51327;DHT22;37412;52.836;6.362;2023-05-10T17:17:34;15.30;99.90
51327;DHT22;37412;52.836;6.362;2023-05-10T17:20:20;15.30;99.90
51327;DHT22;37412;52.836;6.362;2023-05-10T17:23:05;15.30;99.90
51327;DHT22;37412;52.836;6.362;2023-05-10T17:25:52;15.30;99.90
51327;DHT22;37412;52.836;6.362;2023-05-10T17:28:37;15.30;99.90
51327;DHT22;37412;52.836;6.362;2023-05-10T17:31:23;15.40;99.90
51327;DHT22;37412;52.836;6.362;2023-05-10T17:34:09;15.30;99.90
51327;DHT22;37412;52.836;6.362;2023-05-10T17:36:55;15.30;99.90
51327;DHT22;37412;52.836;6.362;2023-05-10T17:39:42;15.30;99.90
51327;DHT22;37412;52.836;6.362;2023-05-10T17:42:27;15.30;99.90
51327;DHT22;37412;52.836;6.362;2023-05-10T17:45:13;15.50;99.90
51327;DHT22;37412;52.836;6.362;2023-05-10T17:47:59;15.30;99.90
51327;DHT22;37412;52.836;6.362;2023-05-10T17:50:45;15.20;99.90
51327;DHT22;37412;52.836;6.362;2023-05-10T17:53:32;15.20;99.90
51327;DHT22;37412;52.836;6.362;2023-05-10T17:56:18;15.20;99.90